Weather at Barney Family Landing Strip [CLOSED]

Public forecast

Using degrees Fahrenheit for public forecast. Weather courtesy of forecast.io.

Closest aviation weather report (METAR) to Barney Family Landing Strip

Closest report is Phoenix-Mesa-Gateway Airport, 3.9 nm (7.1 km) NW. Retrieved 2021/06/21 10:15 UTC (4 minutes ago):

KIWA 211015Z AUTO 00000KT 10SM 32/13 A2984 RMK AO2 T03170132

Closest aviation forecast (TAF) to Barney Family Landing Strip

Closest forecast is Phoenix-Mesa-Gateway Airport, 3.9 nm (7.1 km) NW. Retrieved 2021/06/21 06:24 UTC (4 hours ago):

TAF KIWA 210520Z 2106/2206 25010KT P6SM SKC FM210800 12006KT P6SM SKC FM211700 27012KT P6SM SKC FM220300 27007KT P6SM SKC AMD LTD TO CLD VIS AND WIND TIL 211200